Stoughton, Canada
Current Conditions -  °F | °C
As of 1:00 PM on Thursday 23 Oct 2014 (Local Time) from CYEN Reporting Station
Broken Clouds Broken Clouds  
Wind Chill: 61°   Ceiling: 16000
Heat Index: 61°   Visibility: 15mi
Dew Point: 36°   Wind: 13mph
Humidity: 39%   Direction: 210°SSW
Pressure: 29.74"   Gusts: NA
Location:  49.68°N, 103.02°W
Report Text: CYEN 231900Z 21011KT 15SM FEW100 BKN160 BKN250 16/02 A2974 RMKAC1AS3CI1 SUN VISBL SLP086
Loading
Personal Weather Stations






























Interactive Weather Map
Tropical Storm Tracking
New forecast layout! Learn more

10-Day Weather Forecast

Advertisements
Track Severe Weather on mobile